Time;durP1;ratioP1;P1;durP2;ratioP2;P2;SDS_P1;SDS_P2;PMS_P1;PMS_P2;Temp;Humidity;BMP_temperature;BMP_pressure;BME280_temperature;BME280_humidity;BME280_pressure;Samples;Min_cycle;Max_cycle;Signal;HPM_P1;HPM_P2
2023/01/11 00:01:20;;;;;;;;;;;;;;;;;;4923131;28;19930;-60
2023/01/11 00:03:46;;;;;;;;;;;;;;;;;;4922209;28;19923;-60
2023/01/11 00:06:11;;;;;;;;;;;;;;;;;;4919397;28;19922;-60
2023/01/11 00:08:37;;;;;;;;;;;;;;;;;;4920597;28;19977;-60
2023/01/11 00:11:03;;;;;;;;;;;;;;;;;;4920698;28;19927;-60
2023/01/11 00:13:29;;;;;;;;;;;;;;;;;;4915370;28;19926;-60
2023/01/11 00:15:55;;;;;;;;;;;;;;;;;;4921403;28;19927;-60
2023/01/11 00:18:21;;;;;;;;;;;;;;;;;;4921038;28;20535;-60
2023/01/11 00:20:47;;;;;;;;;;;;;;;;;;4919637;28;19929;-60
2023/01/11 00:23:13;;;;;;;;;;;;;;;;;;4920777;28;19927;-61
2023/01/11 00:25:39;;;;;;;;;;;;;;;;;;4921079;28;19923;-60
2023/01/11 00:28:05;;;;;;;;;;;;;;;;;;4921374;28;19927;-60
2023/01/11 00:30:31;;;;;;;;;;;;;;;;;;4921507;28;19933;-60
2023/01/11 00:32:57;;;;;;;;;;;;;;;;;;4921875;28;20141;-60
2023/01/11 00:35:23;;;;;;;;;;;;;;;;;;4920465;28;19930;-60
2023/01/11 00:37:49;;;;;;;;;;;;;;;;;;4919592;28;19933;-59
2023/01/11 00:40:15;;;;;;;;;;;;;;;;;;4921084;28;19925;-59
2023/01/11 00:48:10;;;;;;;;;;;;;;;;;;4921567;28;20017;-59
2023/01/11 00:50:36;;;;;;;;;;;;;;;;;;4923241;28;19922;-59
2023/01/11 00:53:02;;;;;;;;;;;;;;;;;;4923355;28;20417;-59
2023/01/11 00:55:28;;;;;;;;;;;;;;;;;;4925445;28;19926;-59
2023/01/11 00:57:54;;;;;;;;;;;;;;;;;;4924794;28;19927;-59
2023/01/11 01:00:20;;;;;;;;;;;;;;;;;;4922390;28;19923;-60
2023/01/11 01:02:46;;;;;;;;;;;;;;;;;;4926066;28;20388;-59
2023/01/11 01:05:11;;;;;;;;;;;;;;;;;;4924581;28;19929;-59
2023/01/11 01:07:37;;;;;;;;;;;;;;;;;;4924365;28;20593;-59
2023/01/11 01:10:03;;;;;;;;;;;;;;;;;;4924560;28;19924;-59
2023/01/11 01:15:14;;;;;;;;;;;;;;;;;;4923135;28;20407;-59
2023/01/11 01:17:40;;;;;;;;;;;;;;;;;;4918130;28;20724;-59
2023/01/11 01:20:06;;;;;;;;;;;;;;;;;;4922992;28;19963;-59
2023/01/11 01:22:32;;;;;;;;;;;;;;;;;;4921796;28;19927;-59
2023/01/11 01:24:58;;;;;;;;;;;;;;;;;;4925624;28;19923;-59
2023/01/11 01:27:24;;;;;;;;;;;;;;;;;;4923008;28;19927;-60
2023/01/11 01:29:50;;;;;;;;;;;;;;;;;;4918913;28;20437;-59
2023/01/11 01:32:16;;;;;;;;;;;;;;;;;;4923689;28;19961;-60
2023/01/11 01:34:42;;;;;;;;;;;;;;;;;;4923524;28;20053;-59
2023/01/11 01:37:08;;;;;;;;;;;;;;;;;;4922306;28;19977;-60
2023/01/11 01:39:34;;;;;;;;;;;;;;;;;;4921781;28;20448;-59
2023/01/11 01:42:00;;;;;;;;;;;;;;;;;;4923407;28;20463;-59
2023/01/11 01:44:26;;;;;;;;;;;;;;;;;;4923923;28;20498;-59
2023/01/11 01:46:51;;;;;;;;;;;;;;;;;;4924431;28;19926;-59
2023/01/11 01:49:17;;;;;;;;;;;;;;;;;;4924355;28;19923;-59
2023/01/11 01:51:43;;;;;;;;;;;;;;;;;;4923869;28;20294;-59
2023/01/11 01:54:09;;;;;;;;;;;;;;;;;;4923635;28;19946;-59
2023/01/11 01:56:35;;;;;;;;;;;;;;;;;;4924634;28;19928;-59
2023/01/11 01:59:01;;;;;;;;;;;;;;;;;;4924433;28;19962;-59
2023/01/11 02:04:11;;;;;;;;;;;;;;;;;;4925099;28;19919;-59
2023/01/11 02:06:37;;;;;;;;;;;;;;;;;;4924210;28;19927;-59
2023/01/11 02:09:03;;;;;;;;;;;;;;;;;;4924780;28;19934;-60
2023/01/11 02:11:29;;;;;;;;;;;;;;;;;;4921021;28;20317;-60
2023/01/11 02:13:55;;;;;;;;;;;;;;;;;;4925437;28;19923;-60
2023/01/11 02:16:21;;;;;;;;;;;;;;;;;;4922230;28;19933;-59
2023/01/11 02:18:47;;;;;;;;;;;;;;;;;;4922276;28;19923;-59
2023/01/11 02:21:13;;;;;;;;;;;;;;;;;;4922973;28;19930;-59
2023/01/11 02:23:39;;;;;;;;;;;;;;;;;;4918106;28;19931;-59
2023/01/11 02:26:05;;;;;;;;;;;;;;;;;;4923306;28;19933;-60
2023/01/11 02:28:30;;;;;;;;;;;;;;;;;;4919219;28;19930;-60
2023/01/11 02:30:56;;;;;;;;;;;;;;;;;;4923419;28;20010;-59
2023/01/11 02:33:22;;;;;;;;;;;;;;;;;;4922654;28;20309;-59
2023/01/11 02:35:48;;;;;;;;;;;;;;;;;;4922300;28;19927;-59
2023/01/11 02:38:14;;;;;;;;;;;;;;;;;;4922359;28;19923;-59
2023/01/11 02:40:40;;;;;;;;;;;;;;;;;;4920715;28;19923;-59
2023/01/11 02:45:51;;;;;;;;;;;;;;;;;;4922742;28;19931;-60
2023/01/11 02:48:17;;;;;;;;;;;;;;;;;;4923572;28;19923;-59
2023/01/11 02:50:42;;;;;;;;;;;;;;;;;;4923263;28;20030;-59
2023/01/11 02:53:08;;;;;;;;;;;;;;;;;;4924459;28;19923;-60
2023/01/11 02:55:34;;;;;;;;;;;;;;;;;;4919957;28;19978;-59
2023/01/11 02:58:00;;;;;;;;;;;;;;;;;;4925431;28;19923;-59
2023/01/11 03:00:26;;;;;;;;;;;;;;;;;;4924098;28;19924;-59
2023/01/11 03:02:52;;;;;;;;;;;;;;;;;;4925162;28;19923;-59
2023/01/11 03:05:18;;;;;;;;;;;;;;;;;;4921146;28;19927;-59
2023/01/11 03:07:44;;;;;;;;;;;;;;;;;;4925409;28;19923;-59
2023/01/11 03:10:10;;;;;;;;;;;;;;;;;;4925202;28;20513;-59
2023/01/11 03:12:51;;;;;;;;;;;;;;;;;;4921205;28;20458;-59
2023/01/11 03:15:17;;;;;;;;;;;;;;;;;;4918969;28;19927;-59
2023/01/11 03:17:43;;;;;;;;;;;;;;;;;;4922273;28;19970;-59
2023/01/11 03:20:09;;;;;;;;;;;;;;;;;;4919311;28;20542;-59
2023/01/11 03:22:35;;;;;;;;;;;;;;;;;;4919660;28;20477;-59
2023/01/11 03:25:01;;;;;;;;;;;;;;;;;;4921729;28;19934;-59
2023/01/11 03:27:26;;;;;;;;;;;;;;;;;;4920511;28;19928;-60
2023/01/11 03:29:52;;;;;;;;;;;;;;;;;;4920609;28;20460;-59
2023/01/11 03:32:18;;;;;;;;;;;;;;;;;;4921348;28;19923;-59
2023/01/11 03:34:44;;;;;;;;;;;;;;;;;;4922873;28;19927;-60
2023/01/11 03:37:10;;;;;;;;;;;;;;;;;;4918225;28;20402;-59
2023/01/11 03:39:36;;;;;;;;;;;;;;;;;;4920922;28;19923;-59
2023/01/11 03:42:02;;;;;;;;;;;;;;;;;;4921307;28;19930;-59
2023/01/11 03:44:30;;;;;;;;;;;;;;;;;;4911641;28;20237;-59
2023/01/11 03:46:56;;;;;;;;;;;;;;;;;;4920189;28;19922;-59
2023/01/11 03:49:22;;;;;;;;;;;;;;;;;;4920044;28;20394;-59
2023/01/11 03:51:48;;;;;;;;;;;;;;;;;;4918997;28;20679;-60
2023/01/11 03:54:14;;;;;;;;;;;;;;;;;;4919253;28;19927;-59
2023/01/11 03:56:39;;;;;;;;;;;;;;;;;;4915158;28;19954;-59
2023/01/11 03:59:05;;;;;;;;;;;;;;;;;;4921611;28;19926;-59
2023/01/11 04:01:31;;;;;;;;;;;;;;;;;;4918565;28;19923;-60
2023/01/11 04:03:57;;;;;;;;;;;;;;;;;;4920212;28;19934;-59
2023/01/11 04:06:24;;;;;;;;;;;;;;;;;;4920041;28;20409;-59
2023/01/11 04:08:50;;;;;;;;;;;;;;;;;;4921124;28;20028;-59
2023/01/11 04:11:16;;;;;;;;;;;;;;;;;;4920510;28;19923;-59
2023/01/11 04:13:42;;;;;;;;;;;;;;;;;;4920928;28;19985;-59
2023/01/11 04:16:08;;;;;;;;;;;;;;;;;;4921046;28;20013;-59
2023/01/11 04:18:34;;;;;;;;;;;;;;;;;;4917970;28;19923;-59
2023/01/11 04:21:00;;;;;;;;;;;;;;;;;;4921507;28;19923;-59
2023/01/11 04:23:26;;;;;;;;;;;;;;;;;;4924437;28;19931;-59
2023/01/11 04:25:52;;;;;;;;;;;;;;;;;;4925185;28;20481;-59
2023/01/11 04:28:18;;;;;;;;;;;;;;;;;;4928073;28;20452;-59
2023/01/11 04:30:44;;;;;;;;;;;;;;;;;;4927296;28;19927;-58
2023/01/11 04:33:12;;;;;;;;;;;;;;;;;;4929191;28;20022;-60
2023/01/11 04:35:39;;;;;;;;;;;;;;;;;;4927022;28;20388;-59
2023/01/11 04:38:05;;;;;;;;;;;;;;;;;;4927832;28;19923;-60
2023/01/11 04:40:31;;;;;;;;;;;;;;;;;;4924423;28;19927;-59
2023/01/11 04:43:00;;;;;;;;;;;;;;;;;;4926395;28;20019;-59
2023/01/11 04:45:26;;;;;;;;;;;;;;;;;;4925877;28;20487;-60
2023/01/11 04:47:52;;;;;;;;;;;;;;;;;;4928347;28;19972;-59
2023/01/11 04:50:18;;;;;;;;;;;;;;;;;;4926549;28;20050;-60
2023/01/11 04:52:44;;;;;;;;;;;;;;;;;;4924142;28;19926;-59
2023/01/11 04:55:10;;;;;;;;;;;;;;;;;;4926016;28;19929;-59
2023/01/11 04:57:36;;;;;;;;;;;;;;;;;;4924398;28;20230;-59
2023/01/11 05:00:05;;;;;;;;;;;;;;;;;;4927027;28;19923;-59
2023/01/11 05:02:31;;;;;;;;;;;;;;;;;;4924986;28;20617;-61
2023/01/11 05:04:56;;;;;;;;;;;;;;;;;;4926594;28;19923;-59
2023/01/11 05:07:22;;;;;;;;;;;;;;;;;;4940164;28;19926;-59
2023/01/11 05:09:48;;;;;;;;;;;;;;;;;;4925380;28;20419;-59
2023/01/11 05:12:14;;;;;;;;;;;;;;;;;;4926541;28;19927;-60
2023/01/11 05:14:40;;;;;;;;;;;;;;;;;;4926036;28;19923;-59
2023/01/11 05:17:06;;;;;;;;;;;;;;;;;;4926800;28;19923;-59
2023/01/11 05:19:32;;;;;;;;;;;;;;;;;;4925703;28;19973;-59
2023/01/11 05:21:58;;;;;;;;;;;;;;;;;;4926798;28;19993;-59
2023/01/11 05:24:24;;;;;;;;;;;;;;;;;;4925830;28;20364;-60
2023/01/11 05:26:51;;;;;;;;;;;;;;;;;;4927276;28;21426;-59
2023/01/11 05:29:19;;;;;;;;;;;;;;;;;;4926059;28;19923;-59
2023/01/11 05:31:45;;;;;;;;;;;;;;;;;;4927031;28;19927;-59
2023/01/11 05:34:11;;;;;;;;;;;;;;;;;;4925611;28;19927;-59
2023/01/11 05:36:37;;;;;;;;;;;;;;;;;;4923877;28;19953;-59
2023/01/11 05:39:03;;;;;;;;;;;;;;;;;;4921344;28;19930;-59
2023/01/11 05:41:29;;;;;;;;;;;;;;;;;;4922114;28;20022;-59
2023/01/11 05:46:39;;;;;;;;;;;;;;;;;;4919410;28;19926;-58
2023/01/11 05:49:05;;;;;;;;;;;;;;;;;;4923241;28;20005;-59
2023/01/11 05:51:31;;;;;;;;;;;;;;;;;;4923836;28;20365;-59
2023/01/11 05:53:57;;;;;;;;;;;;;;;;;;4919646;28;19923;-59
2023/01/11 05:56:23;;;;;;;;;;;;;;;;;;4919303;28;19978;-59
2023/01/11 05:58:49;;;;;;;;;;;;;;;;;;4924178;28;20340;-59
2023/01/11 06:01:15;;;;;;;;;;;;;;;;;;4920669;28;20478;-59
2023/01/11 06:03:41;;;;;;;;;;;;;;;;;;4920910;28;19973;-59
2023/01/11 06:06:07;;;;;;;;;;;;;;;;;;4921152;28;19968;-59
2023/01/11 06:08:33;;;;;;;;;;;;;;;;;;4922291;28;19923;-59
2023/01/11 06:10:59;;;;;;;;;;;;;;;;;;4921097;28;19978;-59
2023/01/11 06:13:25;;;;;;;;;;;;;;;;;;4919019;28;19930;-59
2023/01/11 06:15:51;;;;;;;;;;;;;;;;;;4921855;28;19961;-59
2023/01/11 06:18:17;;;;;;;;;;;;;;;;;;4920151;28;20378;-59
2023/01/11 06:20:43;;;;;;;;;;;;;;;;;;4920344;28;19927;-59
2023/01/11 06:23:09;;;;;;;;;;;;;;;;;;4921258;28;19939;-59
2023/01/11 06:25:36;;;;;;;;;;;;;;;;;;4919009;28;19923;-59
2023/01/11 06:28:02;;;;;;;;;;;;;;;;;;4915285;28;20405;-60
2023/01/11 06:30:28;;;;;;;;;;;;;;;;;;4917015;28;20260;-59
2023/01/11 06:32:54;;;;;;;;;;;;;;;;;;4917833;28;19923;-59
2023/01/11 06:35:20;;;;;;;;;;;;;;;;;;4921529;28;20029;-59
2023/01/11 06:37:46;;;;;;;;;;;;;;;;;;4922255;28;19958;-60
2023/01/11 06:40:12;;;;;;;;;;;;;;;;;;4923371;28;20057;-59
2023/01/11 06:42:37;;;;;;;;;;;;;;;;;;4920588;28;20500;-58
2023/01/11 06:45:03;;;;;;;;;;;;;;;;;;4923829;28;20044;-59
2023/01/11 06:47:29;;;;;;;;;;;;;;;;;;4922666;28;20328;-59
2023/01/11 06:49:55;;;;;;;;;;;;;;;;;;4923197;28;20393;-59
2023/01/11 06:52:21;;;;;;;;;;;;;;;;;;4922345;28;19965;-59
2023/01/11 06:54:47;;;;;;;;;;;;;;;;;;4922722;28;19923;-59
2023/01/11 06:57:13;;;;;;;;;;;;;;;;;;4922660;28;19923;-59
2023/01/11 06:59:40;;;;;;;;;;;;;;;;;;4921358;28;19989;-59
2023/01/11 07:02:06;;;;;;;;;;;;;;;;;;4918065;28;19977;-59
2023/01/11 07:04:32;;;;;;;;;;;;;;;;;;4921980;28;19927;-58
2023/01/11 07:06:58;;;;;;;;;;;;;;;;;;4923407;28;19927;-58
2023/01/11 07:09:24;;;;;;;;;;;;;;;;;;4922082;28;19934;-58
2023/01/11 07:11:50;;;;;;;;;;;;;;;;;;4921981;28;19977;-58
2023/01/11 07:14:18;;;;;;;;;;;;;;;;;;4918109;28;19923;-59
2023/01/11 07:16:44;;;;;;;;;;;;;;;;;;4920204;28;19927;-58
2023/01/11 07:19:10;;;;;;;;;;;;;;;;;;4919866;28;20460;-58
2023/01/11 07:21:36;;;;;;;;;;;;;;;;;;4921809;28;19923;-58
2023/01/11 07:24:02;;;;;;;;;;;;;;;;;;4922684;28;19992;-58
2023/01/11 07:26:28;;;;;;;;;;;;;;;;;;4921148;28;19922;-59
2023/01/11 07:28:54;;;;;;;;;;;;;;;;;;4922424;28;20566;-58
2023/01/11 07:31:20;;;;;;;;;;;;;;;;;;4921372;28;19934;-59
2023/01/11 07:33:46;;;;;;;;;;;;;;;;;;4922436;28;19965;-59
2023/01/11 07:36:12;;;;;;;;;;;;;;;;;;4922169;28;20021;-59
2023/01/11 07:38:38;;;;;;;;;;;;;;;;;;4919543;28;21384;-59
2023/01/11 07:43:10;;;;;;;;;;;;;;;;;;4919211;28;22095;-59
2023/01/11 07:43:49;;;;;;;;;;;;;;;;;;4920899;28;19930;-59
2023/01/11 07:46:15;;;;;;;;;;;;;;;;;;4923950;28;19930;-59
2023/01/11 07:48:41;;;;;;;;;;;;;;;;;;4920656;28;19926;-59
2023/01/11 07:51:07;;;;;;;;;;;;;;;;;;4919196;28;19923;-59
2023/01/11 07:53:33;;;;;;;;;;;;;;;;;;4920789;28;19930;-59
2023/01/11 07:55:59;;;;;;;;;;;;;;;;;;4915947;28;19922;-58
2023/01/11 07:58:25;;;;;;;;;;;;;;;;;;4907763;28;19926;-59
2023/01/11 08:00:51;;;;;;;;;;;;;;;;;;4919285;28;20547;-59
2023/01/11 08:03:17;;;;;;;;;;;;;;;;;;4920677;28;21013;-58
2023/01/11 08:05:43;;;;;;;;;;;;;;;;;;4919525;28;20182;-59
2023/01/11 08:08:09;;;;;;;;;;;;;;;;;;4921689;28;19927;-59
2023/01/11 08:10:35;;;;;;;;;;;;;;;;;;4920526;28;19927;-59
2023/01/11 08:15:45;;;;;;;;;;;;;;;;;;4919565;28;19918;-60
2023/01/11 08:18:11;;;;;;;;;;;;;;;;;;4921806;28;20440;-59
2023/01/11 08:20:37;;;;;;;;;;;;;;;;;;4920729;28;19922;-59
2023/01/11 08:23:03;;;;;;;;;;;;;;;;;;4917620;28;20005;-59
2023/01/11 08:25:29;;;;;;;;;;;;;;;;;;4919123;28;20798;-59
2023/01/11 08:27:55;;;;;;;;;;;;;;;;;;4919298;28;20065;-59
2023/01/11 08:30:21;;;;;;;;;;;;;;;;;;4921558;28;20064;-59
2023/01/11 08:32:47;;;;;;;;;;;;;;;;;;4918966;28;20009;-59
2023/01/11 08:35:13;;;;;;;;;;;;;;;;;;4922206;28;20001;-59
2023/01/11 08:37:39;;;;;;;;;;;;;;;;;;4921155;28;20429;-59
2023/01/11 08:40:05;;;;;;;;;;;;;;;;;;4921114;28;19934;-59
2023/01/11 08:42:31;;;;;;;;;;;;;;;;;;4918476;28;19923;-59
2023/01/11 08:44:57;;;;;;;;;;;;;;;;;;4921583;28;21157;-59
2023/01/11 08:47:23;;;;;;;;;;;;;;;;;;4921102;28;19927;-59
2023/01/11 08:49:49;;;;;;;;;;;;;;;;;;4920608;28;20530;-60
2023/01/11 08:52:15;;;;;;;;;;;;;;;;;;4919859;28;19923;-59
2023/01/11 08:54:41;;;;;;;;;;;;;;;;;;4918960;28;19969;-59
2023/01/11 08:57:07;;;;;;;;;;;;;;;;;;4921221;28;19926;-59
2023/01/11 08:59:33;;;;;;;;;;;;;;;;;;4920249;28;19930;-59
2023/01/11 09:02:00;;;;;;;;;;;;;;;;;;4923534;28;19937;-58
2023/01/11 09:04:26;;;;;;;;;;;;;;;;;;4920935;28;19923;-60
2023/01/11 09:06:52;;;;;;;;;;;;;;;;;;4922086;28;19978;-58
2023/01/11 09:09:18;;;;;;;;;;;;;;;;;;4923072;28;20305;-58
2023/01/11 09:11:53;;;;;;;;;;;;;;;;;;4924807;28;19969;-59
2023/01/11 09:14:18;;;;;;;;;;;;;;;;;;4925203;28;19927;-58
2023/01/11 09:16:44;;;;;;;;;;;;;;;;;;4925343;28;19926;-59
2023/01/11 09:19:10;;;;;;;;;;;;;;;;;;4925117;28;19929;-59
2023/01/11 09:21:36;;;;;;;;;;;;;;;;;;4925603;28;19929;-59
2023/01/11 09:24:03;;;;;;;;;;;;;;;;;;4926320;28;20482;-59
2023/01/11 09:26:29;;;;;;;;;;;;;;;;;;4925172;28;19934;-58
2023/01/11 09:28:55;;;;;;;;;;;;;;;;;;4924036;28;19940;-59
2023/01/11 09:31:21;;;;;;;;;;;;;;;;;;4926986;28;20665;-58
2023/01/11 09:33:47;;;;;;;;;;;;;;;;;;4925986;28;19930;-59
2023/01/11 09:36:13;;;;;;;;;;;;;;;;;;4924571;28;19976;-59
2023/01/11 09:38:39;;;;;;;;;;;;;;;;;;4924204;28;19930;-58
2023/01/11 09:41:07;;;;;;;;;;;;;;;;;;4926502;28;19954;-58
2023/01/11 09:43:36;;;;;;;;;;;;;;;;;;4926296;28;19922;-58
2023/01/11 09:46:03;;;;;;;;;;;;;;;;;;4924015;28;19933;-59
2023/01/11 09:48:32;;;;;;;;;;;;;;;;;;4926026;28;19923;-59
2023/01/11 09:50:58;;;;;;;;;;;;;;;;;;4926716;28;20416;-59
2023/01/11 09:53:30;;;;;;;;;;;;;;;;;;4926201;28;19953;-58
2023/01/11 09:55:58;;;;;;;;;;;;;;;;;;4926099;28;19993;-59
2023/01/11 09:58:27;;;;;;;;;;;;;;;;;;4925591;28;19954;-58
2023/01/11 10:00:53;;;;;;;;;;;;;;;;;;4926244;28;20022;-58
2023/01/11 10:03:19;;;;;;;;;;;;;;;;;;4924897;28;19923;-58
2023/01/11 10:05:50;;;;;;;;;;;;;;;;;;4925577;28;19966;-58
2023/01/11 10:08:22;;;;;;;;;;;;;;;;;;4924865;28;19922;-58
2023/01/11 10:10:52;;;;;;;;;;;;;;;;;;4923583;28;19923;-58
2023/01/11 10:13:18;;;;;;;;;;;;;;;;;;4926677;28;19922;-59
2023/01/11 10:15:44;;;;;;;;;;;;;;;;;;4924753;28;19934;-58
2023/01/11 10:18:12;;;;;;;;;;;;;;;;;;4926225;28;19930;-58
2023/01/11 10:20:40;;;;;;;;;;;;;;;;;;4923783;28;19922;-58
2023/01/11 10:23:07;;;;;;;;;;;;;;;;;;4925849;28;20331;-58
2023/01/11 10:25:40;;;;;;;;;;;;;;;;;;4925682;28;19926;-58
2023/01/11 10:28:06;;;;;;;;;;;;;;;;;;4927035;28;20376;-59
2023/01/11 10:30:36;;;;;;;;;;;;;;;;;;4925018;28;20042;-58
2023/01/11 10:33:13;;;;;;;;;;;;;;;;;;4926029;28;20344;-59
2023/01/11 10:36:09;;;;;;;;;;;;;;;;;;4925420;28;20032;-59
2023/01/11 10:39:02;;;;;;;;;;;;;;;;;;4923847;28;19982;-59
2023/01/11 10:41:37;;;;;;;;;;;;;;;;;;4923110;28;19923;-58
2023/01/11 10:44:03;;;;;;;;;;;;;;;;;;4925515;28;20005;-58
2023/01/11 10:46:29;;;;;;;;;;;;;;;;;;4924433;28;20009;-59
2023/01/11 10:48:56;;;;;;;;;;;;;;;;;;4925041;28;20654;-59
2023/01/11 10:51:26;;;;;;;;;;;;;;;;;;4925883;28;19930;-58
2023/01/11 10:53:52;;;;;;;;;;;;;;;;;;4925314;28;19930;-59
2023/01/11 10:56:18;;;;;;;;;;;;;;;;;;4921398;28;20348;-58
2023/01/11 10:58:45;;;;;;;;;;;;;;;;;;4925445;28;19930;-59
2023/01/11 11:01:15;;;;;;;;;;;;;;;;;;4925186;28;20731;-59
2023/01/11 11:03:41;;;;;;;;;;;;;;;;;;4923837;28;19934;-58
2023/01/11 11:06:07;;;;;;;;;;;;;;;;;;4924806;28;20392;-58
2023/01/11 11:08:33;;;;;;;;;;;;;;;;;;4926086;28;19923;-58
2023/01/11 11:10:59;;;;;;;;;;;;;;;;;;4925419;28;19973;-59
2023/01/11 11:13:25;;;;;;;;;;;;;;;;;;4926596;28;19923;-58
2023/01/11 11:15:51;;;;;;;;;;;;;;;;;;4924620;28;20467;-60
2023/01/11 11:18:17;;;;;;;;;;;;;;;;;;4925603;28;20077;-58
2023/01/11 11:20:45;;;;;;;;;;;;;;;;;;4926961;28;19929;-59
2023/01/11 11:23:11;;;;;;;;;;;;;;;;;;4925739;28;19927;-59
2023/01/11 11:25:36;;;;;;;;;;;;;;;;;;4926601;28;21089;-58
2023/01/11 11:28:02;;;;;;;;;;;;;;;;;;4925269;28;19929;-59
2023/01/11 11:30:28;;;;;;;;;;;;;;;;;;4925942;28;19929;-58
2023/01/11 11:32:54;;;;;;;;;;;;;;;;;;4925340;28;19953;-58
2023/01/11 11:35:20;;;;;;;;;;;;;;;;;;4925056;28;20357;-59
2023/01/11 11:37:46;;;;;;;;;;;;;;;;;;4925747;28;20428;-60
2023/01/11 11:40:12;;;;;;;;;;;;;;;;;;4925153;28;19923;-59
2023/01/11 11:42:38;;;;;;;;;;;;;;;;;;4925741;28;19923;-59
2023/01/11 11:45:04;;;;;;;;;;;;;;;;;;4925033;28;20030;-59
2023/01/11 11:47:30;;;;;;;;;;;;;;;;;;4924834;28;19923;-59
2023/01/11 11:49:56;;;;;;;;;;;;;;;;;;4925430;28;21009;-59
2023/01/11 11:52:22;;;;;;;;;;;;;;;;;;4926254;28;19923;-58
2023/01/11 11:54:47;;;;;;;;;;;;;;;;;;4924003;28;19927;-59
2023/01/11 11:57:13;;;;;;;;;;;;;;;;;;4925398;28;20448;-60
2023/01/11 11:59:39;;;;;;;;;;;;;;;;;;4924169;28;19923;-58
2023/01/11 12:02:05;;;;;;;;;;;;;;;;;;4925974;28;19922;-58
2023/01/11 12:04:31;;;;;;;;;;;;;;;;;;4924894;28;19931;-58
2023/01/11 12:06:57;;;;;;;;;;;;;;;;;;4925162;28;19929;-59
2023/01/11 12:09:23;;;;;;;;;;;;;;;;;;4924792;28;20058;-59
2023/01/11 12:11:49;;;;;;;;;;;;;;;;;;4925660;28;19929;-59
2023/01/11 12:14:15;;;;;;;;;;;;;;;;;;4924187;28;20068;-58
2023/01/11 12:16:41;;;;;;;;;;;;;;;;;;4925148;28;19923;-59
2023/01/11 12:19:07;;;;;;;;;;;;;;;;;;4924304;28;19922;-60
2023/01/11 12:21:33;;;;;;;;;;;;;;;;;;4925445;28;20014;-59
2023/01/11 12:23:59;;;;;;;;;;;;;;;;;;4923595;28;20443;-58
2023/01/11 12:26:24;;;;;;;;;;;;;;;;;;4926012;28;19922;-58
2023/01/11 12:28:50;;;;;;;;;;;;;;;;;;4923961;28;20428;-59
2023/01/11 12:31:16;;;;;;;;;;;;;;;;;;4925672;28;19969;-59
2023/01/11 12:33:43;;;;;;;;;;;;;;;;;;4924486;28;20371;-58
2023/01/11 12:36:09;;;;;;;;;;;;;;;;;;4925048;28;19923;-59
2023/01/11 12:38:35;;;;;;;;;;;;;;;;;;4922293;28;19923;-59
2023/01/11 12:41:01;;;;;;;;;;;;;;;;;;4922883;28;20309;-59
2023/01/11 12:43:26;;;;;;;;;;;;;;;;;;4921416;28;19953;-58
2023/01/11 12:45:52;;;;;;;;;;;;;;;;;;4926769;28;19922;-59
2023/01/11 12:48:18;;;;;;;;;;;;;;;;;;4926911;28;19929;-59
2023/01/11 12:50:44;;;;;;;;;;;;;;;;;;4928054;28;19990;-58
2023/01/11 12:53:10;;;;;;;;;;;;;;;;;;4926150;28;20392;-58
2023/01/11 12:55:36;;;;;;;;;;;;;;;;;;4926109;28;19929;-59
2023/01/11 12:58:07;;;;;;;;;;;;;;;;;;4926275;28;20356;-58
2023/01/11 13:00:33;;;;;;;;;;;;;;;;;;4926904;28;19923;-59
2023/01/11 13:02:59;;;;;;;;;;;;;;;;;;4925811;28;20321;-58
2023/01/11 13:05:25;;;;;;;;;;;;;;;;;;4925639;28;19923;-58
2023/01/11 13:07:50;;;;;;;;;;;;;;;;;;4926450;28;19927;-59
2023/01/11 13:10:16;;;;;;;;;;;;;;;;;;4927242;28;20450;-59
2023/01/11 13:12:44;;;;;;;;;;;;;;;;;;4926046;28;20452;-59
2023/01/11 13:15:10;;;;;;;;;;;;;;;;;;4924344;28;20117;-58
2023/01/11 13:17:36;;;;;;;;;;;;;;;;;;4925692;28;19986;-59
2023/01/11 13:20:02;;;;;;;;;;;;;;;;;;4925672;28;20475;-58
2023/01/11 13:22:28;;;;;;;;;;;;;;;;;;4926226;28;20237;-59
2023/01/11 13:24:54;;;;;;;;;;;;;;;;;;4926796;28;19980;-59
2023/01/11 13:27:23;;;;;;;;;;;;;;;;;;4926209;28;20480;-59
2023/01/11 13:29:48;;;;;;;;;;;;;;;;;;4925023;28;19923;-58
2023/01/11 13:32:14;;;;;;;;;;;;;;;;;;4925223;28;20397;-58
2023/01/11 13:34:40;;;;;;;;;;;;;;;;;;4923392;28;19930;-59
2023/01/11 13:37:06;;;;;;;;;;;;;;;;;;4922153;28;19923;-59
2023/01/11 13:39:32;;;;;;;;;;;;;;;;;;4924046;28;19974;-58
2023/01/11 13:41:58;;;;;;;;;;;;;;;;;;4923200;28;19927;-59
2023/01/11 13:44:24;;;;;;;;;;;;;;;;;;4924351;28;19923;-59
2023/01/11 13:46:50;;;;;;;;;;;;;;;;;;4923222;28;19923;-59
2023/01/11 13:49:17;;;;;;;;;;;;;;;;;;4921350;28;19927;-59
2023/01/11 13:51:43;;;;;;;;;;;;;;;;;;4924935;28;19926;-59
2023/01/11 13:54:09;;;;;;;;;;;;;;;;;;4924942;28;20807;-62
2023/01/11 13:56:34;;;;;;;;;;;;;;;;;;4923520;28;19926;-58
2023/01/11 13:59:00;;;;;;;;;;;;;;;;;;4925068;28;20013;-59
2023/01/11 14:01:27;;;;;;;;;;;;;;;;;;4923940;28;19937;-58
2023/01/11 14:03:52;;;;;;;;;;;;;;;;;;4922931;28;19977;-58
2023/01/11 14:06:18;;;;;;;;;;;;;;;;;;4924459;28;20053;-59
2023/01/11 14:08:44;;;;;;;;;;;;;;;;;;4925620;28;20356;-58
2023/01/11 14:11:10;;;;;;;;;;;;;;;;;;4925179;28;21199;-59
2023/01/11 14:16:21;;;;;;;;;;;;;;;;;;4924126;28;20761;-59
2023/01/11 14:18:47;;;;;;;;;;;;;;;;;;4924308;28;19923;-58
2023/01/11 14:21:13;;;;;;;;;;;;;;;;;;4921978;28;19927;-59
2023/01/11 14:23:39;;;;;;;;;;;;;;;;;;4925260;28;19954;-59
2023/01/11 14:26:05;;;;;;;;;;;;;;;;;;4925412;28;20376;-59
2023/01/11 14:28:31;;;;;;;;;;;;;;;;;;4916300;28;19923;-59
2023/01/11 14:30:57;;;;;;;;;;;;;;;;;;4924164;28;19926;-59
2023/01/11 14:33:23;;;;;;;;;;;;;;;;;;4926802;28;19935;-58
2023/01/11 14:35:49;;;;;;;;;;;;;;;;;;4925257;28;19922;-59
2023/01/11 14:38:15;;;;;;;;;;;;;;;;;;4926091;28;20561;-59
2023/01/11 14:40:41;;;;;;;;;;;;;;;;;;4920833;28;19931;-59
2023/01/11 14:43:07;;;;;;;;;;;;;;;;;;4925454;28;20456;-59
2023/01/11 14:45:33;;;;;;;;;;;;;;;;;;4924469;28;19930;-59
2023/01/11 14:47:59;;;;;;;;;;;;;;;;;;4924076;28;20465;-59
2023/01/11 14:50:25;;;;;;;;;;;;;;;;;;4925567;28;20453;-58
2023/01/11 14:52:50;;;;;;;;;;;;;;;;;;4924840;28;19923;-59
2023/01/11 14:55:16;;;;;;;;;;;;;;;;;;4924883;28;19922;-58
2023/01/11 14:57:42;;;;;;;;;;;;;;;;;;4924385;28;19972;-59
2023/01/11 15:00:08;;;;;;;;;;;;;;;;;;4924756;28;19958;-59
2023/01/11 15:02:34;;;;;;;;;;;;;;;;;;4924437;28;19958;-59
2023/01/11 15:05:00;;;;;;;;;;;;;;;;;;4922941;28;20076;-59
2023/01/11 15:07:26;;;;;;;;;;;;;;;;;;4925352;28;19922;-59
2023/01/11 15:09:55;;;;;;;;;;;;;;;;;;4922842;28;19955;-59
2023/01/11 15:12:21;;;;;;;;;;;;;;;;;;4925007;28;19929;-59
2023/01/11 15:14:47;;;;;;;;;;;;;;;;;;4922768;28;19923;-59
2023/01/11 15:19:57;;;;;;;;;;;;;;;;;;4924750;28;19930;-60
2023/01/11 15:22:24;;;;;;;;;;;;;;;;;;4925245;28;19931;-60
2023/01/11 15:24:49;;;;;;;;;;;;;;;;;;4924036;28;19980;-60
2023/01/11 15:27:15;;;;;;;;;;;;;;;;;;4922717;28;19923;-59
2023/01/11 15:29:41;;;;;;;;;;;;;;;;;;4923340;28;20512;-62
2023/01/11 15:32:07;;;;;;;;;;;;;;;;;;4923360;28;20859;-59
2023/01/11 15:34:33;;;;;;;;;;;;;;;;;;4923616;28;19955;-59
2023/01/11 15:37:00;;;;;;;;;;;;;;;;;;4921699;28;19923;-59
2023/01/11 15:39:26;;;;;;;;;;;;;;;;;;4922749;28;20022;-59
2023/01/11 15:42:04;;;;;;;;;;;;;;;;;;4921800;28;19929;-59
2023/01/11 15:44:30;;;;;;;;;;;;;;;;;;4923703;28;19923;-60
2023/01/11 15:46:56;;;;;;;;;;;;;;;;;;4923190;28;20353;-59
2023/01/11 15:49:22;;;;;;;;;;;;;;;;;;4921093;28;20029;-59
2023/01/11 15:51:48;;;;;;;;;;;;;;;;;;4920261;28;19923;-59
2023/01/11 15:54:13;;;;;;;;;;;;;;;;;;4924367;28;19929;-59
2023/01/11 15:56:39;;;;;;;;;;;;;;;;;;4923937;28;19923;-59
2023/01/11 15:59:05;;;;;;;;;;;;;;;;;;4923994;28;19927;-59
2023/01/11 16:01:32;;;;;;;;;;;;;;;;;;4924323;28;20393;-59
2023/01/11 16:03:58;;;;;;;;;;;;;;;;;;4924835;28;19923;-59
2023/01/11 16:06:24;;;;;;;;;;;;;;;;;;4925907;28;19978;-59
2023/01/11 16:08:50;;;;;;;;;;;;;;;;;;4922316;28;20404;-59
2023/01/11 16:11:16;;;;;;;;;;;;;;;;;;4922740;28;20436;-59
2023/01/11 16:13:43;;;;;;;;;;;;;;;;;;4924557;28;19923;-59
2023/01/11 16:16:09;;;;;;;;;;;;;;;;;;4924821;28;19950;-59
2023/01/11 16:18:35;;;;;;;;;;;;;;;;;;4921117;28;20038;-59
2023/01/11 16:21:01;;;;;;;;;;;;;;;;;;4923983;28;19923;-59
2023/01/11 16:23:27;;;;;;;;;;;;;;;;;;4922679;28;19950;-59
2023/01/11 16:25:53;;;;;;;;;;;;;;;;;;4923031;28;19934;-59
2023/01/11 16:28:20;;;;;;;;;;;;;;;;;;4924539;28;19927;-59
2023/01/11 16:30:46;;;;;;;;;;;;;;;;;;4920794;28;20401;-59
2023/01/11 16:33:12;;;;;;;;;;;;;;;;;;4924869;28;19930;-59
2023/01/11 16:35:37;;;;;;;;;;;;;;;;;;4922934;28;19970;-59
2023/01/11 16:38:05;;;;;;;;;;;;;;;;;;4924094;28;20055;-59
2023/01/11 16:40:31;;;;;;;;;;;;;;;;;;4924278;28;20033;-59
2023/01/11 16:42:57;;;;;;;;;;;;;;;;;;4923708;28;20349;-59
2023/01/11 16:45:22;;;;;;;;;;;;;;;;;;4920733;28;19997;-59
2023/01/11 16:47:48;;;;;;;;;;;;;;;;;;4922895;28;19931;-59
2023/01/11 16:50:14;;;;;;;;;;;;;;;;;;4923750;28;19949;-59
2023/01/11 16:52:40;;;;;;;;;;;;;;;;;;4923393;28;19923;-59
2023/01/11 16:55:06;;;;;;;;;;;;;;;;;;4922978;28;19996;-59
2023/01/11 16:57:33;;;;;;;;;;;;;;;;;;4923937;28;20377;-59
2023/01/11 16:59:59;;;;;;;;;;;;;;;;;;4923664;28;19929;-59
2023/01/11 17:02:26;;;;;;;;;;;;;;;;;;4924059;28;19931;-59
2023/01/11 17:04:53;;;;;;;;;;;;;;;;;;4923132;28;19927;-59